Time;durP1;ratioP1;P1;durP2;ratioP2;P2;SDS_P1;SDS_P2;PMS_P1;PMS_P2;Temp;Humidity;BMP_temperature;BMP_pressure;BME280_temperature;BME280_humidity;BME280_pressure;Samples;Min_cycle;Max_cycle;Signal;HPM_P1;HPM_P2
2023/05/10 00:02:33;;;;;;;6.63;3.53;;;14.00;99.90;;;;;;10469116;28;20281;-66
2023/05/10 00:07:34;;;;;;;7.87;3.20;;;13.90;99.90;;;;;;10478854;28;20225;-66
2023/05/10 00:12:34;;;;;;;7.13;3.60;;;13.90;99.90;;;;;;10469863;28;20235;-66
2023/05/10 00:17:35;;;;;;;4.43;2.63;;;13.90;99.90;;;;;;10471251;28;20297;-65
2023/05/10 00:22:36;;;;;;;6.30;3.70;;;13.80;99.90;;;;;;10473089;28;20216;-65
2023/05/10 00:27:36;;;;;;;8.00;3.43;;;13.80;99.90;;;;;;10477027;28;20670;-64
2023/05/10 00:32:37;;;;;;;8.63;3.90;;;13.90;99.90;;;;;;10481877;28;20235;-64
2023/05/10 00:37:37;;;;;;;5.43;3.23;;;13.80;99.90;;;;;;10472994;28;20207;-66
2023/05/10 00:42:38;;;;;;;5.93;3.47;;;13.90;99.90;;;;;;10475859;28;20227;-64
2023/05/10 00:47:39;;;;;;;7.53;3.87;;;13.90;99.90;;;;;;10470423;28;20216;-67
2023/05/10 00:52:40;;;;;;;8.37;4.27;;;13.90;99.90;;;;;;10469974;28;20230;-65
2023/05/10 00:57:41;;;;;;;10.80;3.93;;;13.80;99.90;;;;;;10462786;28;20226;-66
2023/05/10 01:02:42;;;;;;;10.50;5.20;;;13.90;99.90;;;;;;10465776;28;20255;-71
2023/05/10 01:07:42;;;;;;;10.97;5.33;;;13.90;99.90;;;;;;10464211;28;20228;-71
2023/05/10 01:12:46;;;;;;;10.87;5.27;;;13.90;99.90;;;;;;10470814;28;20233;-72
2023/05/10 01:17:47;;;;;;;9.60;4.67;;;13.90;99.90;;;;;;10471573;28;20215;-71
2023/05/10 01:23:07;;;;;;;9.00;5.00;;;13.90;99.90;;;;;;10473391;28;20215;-71
2023/05/10 01:28:16;;;;;;;11.53;5.57;;;13.90;99.90;;;;;;10464700;28;20239;-72
2023/05/10 01:33:58;;;;;;;10.87;5.63;;;13.80;99.90;;;;;;10474394;28;20252;-73
2023/05/10 01:39:06;;;;;;;11.67;6.03;;;13.90;99.90;;;;;;10470708;28;20764;-72
2023/05/10 01:44:18;;;;;;;15.00;6.50;;;13.80;99.90;;;;;;10470374;28;20234;-71
2023/05/10 01:49:28;;;;;;;12.77;6.10;;;13.80;99.90;;;;;;10467000;28;20784;-72
2023/05/10 01:54:32;;;;;;;14.33;6.33;;;13.80;99.90;;;;;;10466389;28;20258;-72
2023/05/10 01:59:36;;;;;;;15.17;6.60;;;13.80;99.90;;;;;;10475276;28;20235;-73
2023/05/10 02:04:39;;;;;;;13.13;6.00;;;13.70;99.90;;;;;;10474972;28;20705;-72
2023/05/10 02:09:41;;;;;;;15.70;7.57;;;13.70;99.90;;;;;;10472001;28;20230;-73
2023/05/10 02:14:42;;;;;;;20.57;7.80;;;13.70;99.90;;;;;;10483698;28;20230;-72
2023/05/10 02:19:45;;;;;;;19.97;8.53;;;13.60;99.90;;;;;;10480102;28;20294;-72
2023/05/10 02:24:46;;;;;;;20.17;8.67;;;13.60;99.90;;;;;;10470182;28;20228;-73
2023/05/10 02:29:49;;;;;;;20.33;9.37;;;13.60;99.90;;;;;;10478132;28;20227;-69
2023/05/10 02:34:51;;;;;;;24.47;9.60;;;13.50;99.90;;;;;;10482742;28;20697;-70
2023/05/10 02:39:54;;;;;;;26.07;9.70;;;13.60;99.90;;;;;;10492094;28;20207;-72
2023/05/10 02:45:00;;;;;;;20.37;8.70;;;13.60;99.90;;;;;;10476398;28;20216;-69
2023/05/10 02:50:01;;;;;;;19.90;8.87;;;13.60;99.90;;;;;;10468244;28;20307;-71
2023/05/10 02:55:04;;;;;;;29.90;10.60;;;13.60;99.90;;;;;;10476846;28;20306;-70
2023/05/10 03:00:06;;;;;;;36.23;10.93;;;13.60;99.90;;;;;;10470031;28;20251;-70
2023/05/10 03:05:07;;;;;;;31.93;11.43;;;13.60;99.90;;;;;;10476932;28;20240;-69
2023/05/10 03:10:08;;;;;;;30.80;12.53;;;13.50;99.90;;;;;;10468975;28;20246;-72
2023/05/10 03:15:27;;;;;;;32.17;11.83;;;13.50;99.90;;;;;;10476738;28;20184;-72
2023/05/10 03:20:35;;;;;;;33.57;12.23;;;13.50;99.90;;;;;;10473125;28;20211;-71
2023/05/10 03:25:36;;;;;;;32.87;12.50;;;13.50;99.90;;;;;;10471219;28;20737;-71
2023/05/10 03:30:38;;;;;;;26.30;12.17;;;13.50;99.90;;;;;;10479769;28;20229;-70
2023/05/10 03:35:39;;;;;;;30.63;12.37;;;13.40;99.90;;;;;;10477451;28;20240;-70
2023/05/10 03:40:39;;;;;;;30.07;12.20;;;13.40;99.90;;;;;;10473569;28;20709;-70
2023/05/10 03:45:40;;;;;;;29.60;13.13;;;13.40;99.90;;;;;;10468937;28;20212;-72
2023/05/10 03:50:41;;;;;;;31.10;13.27;;;13.40;99.90;;;;;;10472971;28;20219;-72
2023/05/10 03:55:41;;;;;;;38.00;14.57;;;13.40;99.90;;;;;;10469132;28;20219;-72
2023/05/10 04:00:45;;;;;;;30.20;12.67;;;13.50;99.90;;;;;;10489300;28;20220;-71
2023/05/10 04:05:45;;;;;;;32.10;12.77;;;13.50;99.90;;;;;;10472132;28;20226;-71
2023/05/10 04:10:46;;;;;;;22.50;11.60;;;13.50;99.90;;;;;;10467841;28;20227;-72
2023/05/10 04:15:46;;;;;;;29.73;13.03;;;13.50;99.90;;;;;;10473967;28;20586;-72
2023/05/10 04:20:47;;;;;;;25.13;12.47;;;13.50;99.90;;;;;;10473821;28;20595;-76
2023/05/10 04:25:47;;;;;;;21.93;10.97;;;13.70;99.90;;;;;;10473680;28;20241;-73
2023/05/10 04:30:48;;;;;;;28.17;12.23;;;13.70;99.90;;;;;;10481880;28;20227;-70
2023/05/10 04:35:49;;;;;;;28.27;12.40;;;13.70;99.90;;;;;;10481211;28;20223;-70
2023/05/10 04:40:49;;;;;;;30.47;12.50;;;13.80;99.90;;;;;;10473440;28;20654;-71
2023/05/10 04:45:50;;;;;;;26.07;12.20;;;13.80;99.90;;;;;;10464767;28;20219;-72
2023/05/10 04:50:51;;;;;;;23.33;11.30;;;13.80;99.90;;;;;;10469470;28;20230;-68
2023/05/10 04:55:51;;;;;;;22.27;12.17;;;13.80;99.90;;;;;;10465330;28;20224;-69
2023/05/10 05:00:52;;;;;;;25.00;12.00;;;13.90;99.90;;;;;;10472105;28;20219;-70
2023/05/10 05:05:52;;;;;;;27.77;12.73;;;14.00;99.90;;;;;;10471112;28;20218;-69
2023/05/10 05:10:54;;;;;;;22.33;11.83;;;13.90;99.90;;;;;;10464671;28;20278;-69
2023/05/10 05:15:55;;;;;;;23.33;11.13;;;14.00;99.90;;;;;;10471473;28;20250;-68
2023/05/10 05:20:55;;;;;;;28.87;13.50;;;13.90;99.90;;;;;;10462763;28;20246;-69
2023/05/10 05:25:56;;;;;;;16.83;10.73;;;14.00;99.90;;;;;;10462430;28;20254;-68
2023/05/10 05:30:56;;;;;;;25.13;12.37;;;14.00;99.90;;;;;;10470411;28;20226;-68
2023/05/10 05:35:59;;;;;;;24.37;11.13;;;14.20;99.90;;;;;;10470033;28;20226;-71
2023/05/10 05:41:00;;;;;;;22.07;10.77;;;14.20;99.90;;;;;;10479749;28;20717;-72
2023/05/10 05:46:01;;;;;;;19.57;9.17;;;14.20;99.90;;;;;;10462325;28;20240;-70
2023/05/10 05:51:02;;;;;;;14.20;8.43;;;14.30;99.90;;;;;;10469251;28;20261;-70
2023/05/10 05:56:03;;;;;;;15.30;9.30;;;14.60;99.90;;;;;;10462019;28;20215;-70
2023/05/10 06:01:04;;;;;;;8.80;7.30;;;14.90;99.90;;;;;;10471358;28;20307;-70
2023/05/10 06:06:04;;;;;;;15.17;7.23;;;15.20;99.90;;;;;;10470210;28;20694;-71
2023/05/10 06:11:05;;;;;;;13.77;6.27;;;15.40;99.90;;;;;;10474205;28;20232;-71
2023/05/10 06:16:06;;;;;;;4.87;4.47;;;15.90;99.90;;;;;;10469252;28;20829;-71
2023/05/10 06:21:06;;;;;;;7.57;5.03;;;15.80;99.90;;;;;;10464128;28;20224;-70
2023/05/10 06:26:07;;;;;;;9.17;4.60;;;15.80;99.90;;;;;;10486150;28;20592;-70
2023/05/10 06:31:07;;;;;;;6.37;4.30;;;15.90;99.90;;;;;;10478204;28;20224;-71
2023/05/10 06:36:08;;;;;;;9.07;4.37;;;16.10;99.90;;;;;;10470471;28;20262;-71
2023/05/10 06:41:09;;;;;;;5.77;4.33;;;16.20;99.90;;;;;;10471613;28;20222;-72
2023/05/10 06:46:09;;;;;;;4.57;4.17;;;16.30;99.90;;;;;;10476500;28;20326;-71
2023/05/10 06:51:10;;;;;;;3.97;3.63;;;16.20;99.90;;;;;;10468292;28;20220;-70
2023/05/10 06:56:11;;;;;;;7.43;4.40;;;16.30;99.90;;;;;;10470950;28;20220;-71
2023/05/10 07:01:12;;;;;;;8.93;4.33;;;16.50;99.90;;;;;;10474753;28;20217;-71
2023/05/10 07:06:12;;;;;;;5.50;4.07;;;16.60;99.90;;;;;;10471666;28;20580;-71
2023/05/10 07:11:13;;;;;;;7.07;4.73;;;16.50;99.90;;;;;;10475011;28;20309;-71
2023/05/10 07:16:13;;;;;;;8.83;5.50;;;16.30;99.90;;;;;;10470474;28;20218;-71
2023/05/10 07:21:14;;;;;;;5.90;4.67;;;16.10;99.90;;;;;;10478577;28;20211;-71
2023/05/10 07:26:18;;;;;;;6.17;4.57;;;16.30;99.90;;;;;;10474197;28;20323;-71
2023/05/10 07:31:18;;;;;;;3.97;3.67;;;16.70;99.90;;;;;;10473204;28;20793;-72
2023/05/10 07:36:22;;;;;;;4.83;4.37;;;17.10;99.90;;;;;;10475853;28;20302;-71
2023/05/10 07:41:23;;;;;;;7.17;3.27;;;17.70;99.90;;;;;;10472025;28;20232;-71
2023/05/10 07:46:23;;;;;;;5.20;3.70;;;18.30;99.90;;;;;;10470205;28;20222;-72
2023/05/10 07:51:24;;;;;;;5.57;3.13;;;18.40;99.90;;;;;;10474938;28;20231;-71
2023/05/10 07:56:32;;;;;;;5.27;3.00;;;19.20;99.90;;;;;;10471137;28;20227;-71
2023/05/10 08:01:34;;;;;;;4.03;3.30;;;18.80;99.90;;;;;;10471438;28;20584;-71
2023/05/10 08:06:35;;;;;;;5.57;3.60;;;18.20;99.90;;;;;;10477749;28;20223;-71
2023/05/10 08:11:36;;;;;;;3.43;3.00;;;17.90;99.90;;;;;;10471254;28;20232;-70
2023/05/10 08:16:36;;;;;;;3.17;2.90;;;17.70;99.90;;;;;;10467636;28;20221;-71
2023/05/10 08:21:37;;;;;;;3.17;2.97;;;17.40;99.90;;;;;;10470034;28;20695;-72
2023/05/10 08:26:37;;;;;;;4.87;2.90;;;17.20;99.90;;;;;;10477685;28;20228;-72
2023/05/10 08:31:38;;;;;;;6.27;3.37;;;16.80;99.90;;;;;;10481758;28;20281;-71
2023/05/10 08:36:38;;;;;;;3.67;3.37;;;16.30;99.90;;;;;;10474845;28;20230;-72
2023/05/10 08:41:44;;;;;;;4.60;3.57;;;15.90;99.90;;;;;;10476898;28;20587;-72
2023/05/10 08:46:46;;;;;;;4.30;3.90;;;15.80;99.90;;;;;;10465775;28;20208;-72
2023/05/10 08:51:53;;;;;;;6.73;2.83;;;15.90;99.90;;;;;;10464316;28;20225;-71
2023/05/10 08:56:54;;;;;;;4.93;3.37;;;16.30;99.90;;;;;;10471990;28;20217;-70
2023/05/10 09:01:58;;;;;;;4.20;2.97;;;17.10;99.90;;;;;;10463835;28;20782;-70
2023/05/10 09:06:58;;;;;;;4.47;2.93;;;17.80;99.90;;;;;;10470848;28;20278;-72
2023/05/10 09:11:59;;;;;;;3.50;2.57;;;18.30;99.90;;;;;;10462860;28;20762;-71
2023/05/10 09:17:00;;;;;;;3.43;2.33;;;18.60;99.90;;;;;;10463943;28;20229;-72
2023/05/10 09:22:02;;;;;;;4.13;2.33;;;19.30;99.90;;;;;;10464108;28;20313;-71
2023/05/10 09:27:02;;;;;;;2.30;1.23;;;20.10;99.90;;;;;;10468285;28;20261;-71
2023/05/10 09:32:06;;;;;;;2.87;2.30;;;21.40;99.90;;;;;;10464672;28;20227;-72
2023/05/10 09:37:07;;;;;;;3.00;0.80;;;22.20;99.90;;;;;;10478758;28;20214;-72
2023/05/10 09:42:09;;;;;;;3.43;1.20;;;20.10;99.90;;;;;;10464756;28;20219;-72
2023/05/10 09:47:10;;;;;;;5.63;0.87;;;18.20;99.90;;;;;;10471426;28;20619;-72
2023/05/10 09:52:10;;;;;;;2.10;1.00;;;17.50;99.90;;;;;;10470022;28;20239;-72
2023/05/10 09:57:21;;;;;;;4.30;1.50;;;17.30;99.90;;;;;;10464459;28;20255;-72
2023/05/10 10:02:29;;;;;;;6.60;2.00;;;17.40;99.90;;;;;;10468053;28;20229;-72
2023/05/10 10:07:29;;;;;;;1.93;1.33;;;17.40;99.90;;;;;;10466462;28;20229;-72
2023/05/10 10:12:30;;;;;;;2.03;0.97;;;17.40;99.90;;;;;;10466962;28;20719;-72
2023/05/10 10:17:32;;;;;;;3.30;0.90;;;17.40;99.90;;;;;;10465399;28;20220;-71
2023/05/10 10:22:32;;;;;;;1.87;0.70;;;17.50;99.90;;;;;;10473959;28;20224;-71
2023/05/10 10:27:42;;;;;;;2.30;1.00;;;17.70;99.90;;;;;;10477780;28;20217;-72
2023/05/10 10:33:12;;;;;;;2.70;0.90;;;18.10;99.90;;;;;;10486068;28;20224;-72
2023/05/10 10:38:13;;;;;;;2.43;1.10;;;18.60;99.90;;;;;;10500557;28;20714;-72
2023/05/10 10:43:28;;;;;;;1.30;0.83;;;19.00;99.90;;;;;;10481629;28;20307;-71
2023/05/10 10:48:28;;;;;;;2.60;0.83;;;18.90;99.90;;;;;;10473213;28;20221;-71
2023/05/10 10:53:29;;;;;;;4.37;1.10;;;18.60;99.90;;;;;;10477517;28;20586;-71
2023/05/10 10:58:32;;;;;;;7.60;0.80;;;18.50;99.90;;;;;;10472755;28;20221;-71
2023/05/10 11:03:32;;;;;;;1.17;0.93;;;19.40;99.90;;;;;;10473965;28;20228;-71
2023/05/10 11:08:41;;;;;;;3.27;0.80;;;19.10;99.90;;;;;;10472375;28;20221;-71
2023/05/10 11:13:44;;;;;;;2.50;0.57;;;18.30;99.90;;;;;;10468528;28;20239;-71
2023/05/10 11:19:04;;;;;;;2.53;0.70;;;17.60;99.90;;;;;;10469091;28;20218;-71
2023/05/10 11:24:13;;;;;;;2.90;1.07;;;17.30;99.90;;;;;;10480960;28;20670;-71
2023/05/10 11:29:14;;;;;;;3.90;0.87;;;17.40;99.90;;;;;;10469605;28;20225;-71
2023/05/10 11:34:30;;;;;;;0.50;0.50;;;18.10;99.90;;;;;;10474170;28;20234;-72
2023/05/10 11:39:31;;;;;;;1.80;0.67;;;20.60;99.90;;;;;;10470529;28;20599;-72
2023/05/10 11:44:32;;;;;;;1.53;0.70;;;22.20;99.90;;;;;;10477159;28;20211;-71
2023/05/10 11:49:33;;;;;;;2.73;0.67;;;22.40;99.90;;;;;;10473874;28;20447;-70
2023/05/10 11:54:34;;;;;;;3.37;0.80;;;22.70;99.90;;;;;;10470265;28;20257;-72
2023/05/10 11:59:36;;;;;;;1.67;0.70;;;23.00;99.90;;;;;;10471787;28;20222;-73
2023/05/10 12:04:37;;;;;;;2.23;0.53;;;23.30;99.90;;;;;;10478716;28;20218;-72
2023/05/10 12:09:45;;;;;;;2.83;0.80;;;23.40;99.90;;;;;;10484495;28;20219;-72
2023/05/10 12:14:50;;;;;;;2.53;1.00;;;23.40;99.90;;;;;;10473382;28;20868;-71
2023/05/10 12:19:50;;;;;;;1.70;0.60;;;23.00;99.90;;;;;;10467871;28;20598;-71
2023/05/10 12:24:54;;;;;;;1.00;0.90;;;22.40;99.90;;;;;;10471379;28;20225;-72
2023/05/10 12:29:54;;;;;;;0.60;0.60;;;21.50;99.90;;;;;;10465846;28;20705;-71
2023/05/10 12:34:57;;;;;;;2.43;0.83;;;21.30;99.90;;;;;;10488333;28;20229;-72
2023/05/10 12:39:58;;;;;;;2.27;0.40;;;21.90;99.90;;;;;;10480290;28;20252;-72
2023/05/10 12:44:58;;;;;;;1.27;0.60;;;22.20;99.20;;;;;;10464781;28;20294;-71
2023/05/10 12:50:00;;;;;;;2.40;0.70;;;22.60;98.40;;;;;;10470272;28;20320;-71
2023/05/10 12:55:02;;;;;;;1.57;0.53;;;22.80;98.10;;;;;;10468442;28;20210;-71
2023/05/10 13:00:05;;;;;;;2.47;0.70;;;22.70;97.70;;;;;;10465037;28;20214;-71
2023/05/10 13:05:06;;;;;;;3.47;0.70;;;22.40;97.30;;;;;;10464575;28;20299;-71
2023/05/10 13:10:07;;;;;;;3.20;1.23;;;22.40;97.40;;;;;;10471719;28;20194;-72
2023/05/10 13:15:08;;;;;;;4.07;0.97;;;21.80;97.60;;;;;;10465057;28;20552;-71
2023/05/10 13:20:09;;;;;;;1.67;0.90;;;21.30;97.10;;;;;;10470919;28;20182;-71
2023/05/10 13:25:10;;;;;;;2.60;0.93;;;21.10;96.90;;;;;;10464590;28;20179;-71
2023/05/10 13:30:11;;;;;;;3.97;1.00;;;21.00;97.30;;;;;;10472003;28;20197;-71
2023/05/10 13:35:12;;;;;;;5.33;1.43;;;20.70;99.20;;;;;;10463684;28;20186;-71
2023/05/10 13:40:14;;;;;;;2.77;1.00;;;20.60;99.90;;;;;;10469739;28;20186;-72
2023/05/10 13:45:15;;;;;;;3.47;1.20;;;21.10;99.90;;;;;;10473515;28;20249;-73
2023/05/10 13:50:16;;;;;;;2.87;0.70;;;21.70;99.90;;;;;;10467976;28;20357;-71
2023/05/10 13:55:17;;;;;;;1.17;0.57;;;22.20;99.90;;;;;;10480085;28;20274;-71
2023/05/10 14:00:18;;;;;;;3.63;0.97;;;22.10;99.50;;;;;;10473913;28;20296;-72
2023/05/10 14:05:18;;;;;;;1.63;0.90;;;21.80;99.30;;;;;;10475672;28;20247;-71
2023/05/10 14:10:19;;;;;;;2.50;1.00;;;21.40;99.90;;;;;;10473102;28;20195;-71
2023/05/10 14:15:20;;;;;;;2.17;1.27;;;21.40;99.90;;;;;;10476432;28;20190;-72
2023/05/10 14:20:20;;;;;;;3.93;1.10;;;21.30;99.90;;;;;;10473510;28;20194;-72
2023/05/10 14:25:21;;;;;;;3.43;0.97;;;21.00;99.90;;;;;;10478379;28;20180;-71
2023/05/10 14:30:22;;;;;;;6.10;1.10;;;20.80;99.90;;;;;;10479346;28;20224;-71
2023/05/10 14:35:22;;;;;;;4.63;1.47;;;20.60;99.90;;;;;;10475470;28;20235;-70
2023/05/10 14:40:23;;;;;;;3.40;0.83;;;20.60;99.90;;;;;;10485798;28;20210;-71
2023/05/10 14:45:23;;;;;;;1.93;0.87;;;20.80;99.90;;;;;;10485300;28;20861;-71
2023/05/10 14:50:24;;;;;;;2.97;1.20;;;21.00;99.30;;;;;;10480896;28;20290;-70
2023/05/10 14:55:25;;;;;;;3.30;1.30;;;21.10;98.70;;;;;;10472796;28;20223;-71
2023/05/10 15:00:25;;;;;;;2.70;0.90;;;21.10;99.00;;;;;;10471845;28;20241;-70
2023/05/10 15:05:26;;;;;;;5.23;1.10;;;21.10;97.30;;;;;;10470857;28;20257;-71
2023/05/10 15:10:27;;;;;;;2.73;0.70;;;21.00;97.20;;;;;;10469628;28;20234;-71
2023/05/10 15:15:27;;;;;;;6.97;1.00;;;20.90;97.40;;;;;;10471933;28;20219;-71
2023/05/10 15:20:28;;;;;;;2.70;1.07;;;20.80;98.10;;;;;;10469790;28;20219;-71
2023/05/10 15:25:28;;;;;;;1.67;0.83;;;20.60;97.20;;;;;;10473146;28;20340;-71
2023/05/10 15:30:29;;;;;;;3.97;0.90;;;20.80;97.00;;;;;;10471807;28;20602;-70
2023/05/10 15:35:29;;;;;;;2.27;1.20;;;20.80;96.60;;;;;;10476404;28;20228;-71
2023/05/10 15:40:30;;;;;;;2.87;0.80;;;20.70;96.40;;;;;;10468522;28;20239;-72
2023/05/10 15:45:31;;;;;;;2.77;1.17;;;20.60;96.50;;;;;;10470160;28;20230;-71
2023/05/10 15:50:31;;;;;;;3.03;0.97;;;20.40;96.20;;;;;;10472836;28;20661;-69
2023/05/10 15:55:33;;;;;;;2.47;1.07;;;20.30;96.10;;;;;;10472289;28;20693;-69
2023/05/10 16:00:34;;;;;;;2.13;0.93;;;20.30;96.20;;;;;;10471693;28;20228;-69
2023/05/10 16:05:35;;;;;;;2.87;0.80;;;20.20;96.10;;;;;;10470839;28;20283;-70
2023/05/10 16:10:35;;;;;;;3.43;0.73;;;20.00;95.90;;;;;;10471617;28;20233;-69
2023/05/10 16:15:36;;;;;;;1.07;0.53;;;20.00;96.70;;;;;;10476799;28;20217;-69
2023/05/10 16:20:37;;;;;;;5.93;0.80;;;20.00;96.80;;;;;;10476607;28;20252;-68
2023/05/10 16:25:37;;;;;;;1.53;0.53;;;20.00;96.50;;;;;;10467882;28;20224;-68
2023/05/10 16:30:38;;;;;;;2.17;1.07;;;20.10;95.90;;;;;;10467341;28;20240;-68
2023/05/10 16:35:39;;;;;;;3.33;0.83;;;20.10;95.60;;;;;;10480575;28;20221;-69
2023/05/10 16:40:39;;;;;;;1.60;1.07;;;20.10;95.60;;;;;;10488482;28;20218;-68
2023/05/10 16:45:41;;;;;;;3.13;0.80;;;19.90;95.00;;;;;;10480151;28;20217;-69
2023/05/10 16:50:44;;;;;;;1.60;0.73;;;19.80;95.00;;;;;;10493430;28;20228;-68
2023/05/10 16:55:45;;;;;;;1.67;0.73;;;19.70;95.40;;;;;;10484072;28;20245;-68
2023/05/10 17:00:45;;;;;;;2.70;0.90;;;19.60;95.50;;;;;;10481001;28;20292;-69
2023/05/10 17:05:46;;;;;;;2.40;1.20;;;19.40;95.70;;;;;;10477318;28;20265;-68
2023/05/10 17:10:47;;;;;;;4.00;1.20;;;19.30;96.40;;;;;;10482761;28;20221;-68
2023/05/10 17:15:47;;;;;;;2.90;1.27;;;19.10;96.80;;;;;;10481315;28;20223;-69
2023/05/10 17:20:49;;;;;;;3.83;1.00;;;19.00;96.50;;;;;;10476301;28;20231;-69
2023/05/10 17:25:49;;;;;;;3.87;1.10;;;18.80;95.80;;;;;;10476312;28;20599;-68
2023/05/10 17:30:56;;;;;;;3.20;0.90;;;18.60;96.10;;;;;;10480239;28;20219;-68
2023/05/10 17:35:57;;;;;;;2.03;0.93;;;18.40;97.10;;;;;;10484733;28;20224;-67
2023/05/10 17:41:01;;;;;;;2.40;0.90;;;18.30;97.60;;;;;;10471837;28;20223;-68
2023/05/10 17:46:02;;;;;;;2.57;1.93;;;18.20;98.50;;;;;;10468545;28;20230;-68
2023/05/10 17:51:03;;;;;;;2.37;1.17;;;18.10;99.30;;;;;;10464340;28;20233;-68
2023/05/10 17:56:04;;;;;;;3.37;1.20;;;18.00;99.90;;;;;;10479604;28;20220;-68
2023/05/10 18:01:08;;;;;;;2.67;1.50;;;17.80;99.90;;;;;;10479146;28;20224;-68
2023/05/10 18:06:08;;;;;;;3.40;1.00;;;17.70;99.90;;;;;;10478991;28;20222;-69
2023/05/10 18:11:09;;;;;;;2.40;0.83;;;17.50;99.90;;;;;;10473769;28;20228;-68
2023/05/10 18:16:12;;;;;;;1.90;1.07;;;17.40;99.90;;;;;;10470397;28;20276;-70
2023/05/10 18:21:12;;;;;;;2.73;1.43;;;17.30;99.90;;;;;;10474198;28;20265;-67
2023/05/10 18:26:13;;;;;;;3.43;1.67;;;17.10;99.90;;;;;;10463930;28;20243;-68
2023/05/10 18:31:14;;;;;;;4.03;1.67;;;16.90;99.90;;;;;;10479413;28;20226;-68
2023/05/10 18:36:14;;;;;;;2.63;1.77;;;16.90;99.90;;;;;;10462315;28;21862;-68
2023/05/10 18:41:15;;;;;;;1.87;1.17;;;16.70;99.90;;;;;;10482064;28;20235;-69
2023/05/10 18:46:16;;;;;;;2.33;0.97;;;16.50;99.90;;;;;;10479102;28;20231;-68
2023/05/10 18:51:16;;;;;;;1.27;1.17;;;16.30;99.90;;;;;;10475300;28;20227;-68
2023/05/10 18:56:17;;;;;;;1.53;1.10;;;16.20;99.90;;;;;;10470370;28;20214;-66
2023/05/10 19:01:18;;;;;;;2.40;1.23;;;16.00;99.90;;;;;;10477066;28;20306;-69
2023/05/10 19:06:18;;;;;;;1.93;1.00;;;15.80;99.90;;;;;;10477222;28;20885;-66
2023/05/10 19:11:20;;;;;;;1.10;0.73;;;15.60;99.90;;;;;;10491568;28;20223;-68
2023/05/10 19:16:21;;;;;;;2.27;1.00;;;15.50;99.90;;;;;;10472328;28;21008;-67
2023/05/10 19:21:21;;;;;;;1.63;1.30;;;15.40;99.90;;;;;;10471075;28;20226;-67
2023/05/10 19:26:22;;;;;;;2.03;0.93;;;15.30;99.90;;;;;;10479568;28;20726;-67
2023/05/10 19:31:23;;;;;;;2.50;1.40;;;15.20;99.90;;;;;;10471460;28;20643;-66
2023/05/10 19:36:24;;;;;;;1.33;1.07;;;15.20;99.90;;;;;;10468181;28;20314;-66
2023/05/10 19:41:24;;;;;;;3.07;1.10;;;15.10;99.90;;;;;;10484940;28;20227;-69
2023/05/10 19:46:25;;;;;;;3.10;1.10;;;15.00;99.90;;;;;;10485589;28;20712;-68
2023/05/10 19:51:26;;;;;;;4.57;1.60;;;15.00;99.90;;;;;;10482971;28;20297;-72
2023/05/10 19:56:28;;;;;;;2.27;0.93;;;15.00;99.90;;;;;;10473287;28;20211;-71
2023/05/10 20:01:29;;;;;;;2.90;1.20;;;14.90;99.90;;;;;;10473718;28;20872;-69
2023/05/10 20:06:30;;;;;;;4.80;1.60;;;14.90;99.90;;;;;;10472043;28;20315;-68
2023/05/10 20:11:31;;;;;;;9.30;1.30;;;14.80;99.90;;;;;;10478874;28;20230;-69
2023/05/10 20:16:31;;;;;;;5.03;1.13;;;14.70;99.90;;;;;;10472053;28;20880;-69
2023/05/10 20:21:32;;;;;;;1.77;0.93;;;14.70;99.90;;;;;;10480245;28;20218;-68
2023/05/10 20:26:32;;;;;;;2.67;1.10;;;14.60;99.90;;;;;;10486703;28;20284;-68
2023/05/10 20:31:33;;;;;;;2.37;1.07;;;14.60;99.90;;;;;;10484165;28;20229;-68
2023/05/10 20:36:34;;;;;;;3.73;0.90;;;14.60;99.90;;;;;;10477720;28;20219;-69
2023/05/10 20:41:34;;;;;;;6.27;0.80;;;14.60;99.90;;;;;;10489188;28;20219;-68
2023/05/10 20:46:35;;;;;;;0.83;0.60;;;14.50;99.90;;;;;;10487559;28;20240;-69
2023/05/10 20:51:36;;;;;;;3.33;1.43;;;14.50;99.90;;;;;;10465369;28;20239;-69
2023/05/10 20:56:36;;;;;;;2.87;0.80;;;14.50;99.90;;;;;;10477395;28;20231;-67
2023/05/10 21:01:37;;;;;;;2.03;1.30;;;14.50;99.90;;;;;;10476696;28;20322;-67
2023/05/10 21:06:37;;;;;;;2.87;1.07;;;14.50;99.90;;;;;;10480188;28;20238;-67
2023/05/10 21:11:38;;;;;;;1.90;0.70;;;14.40;99.90;;;;;;10466459;28;20790;-67
2023/05/10 21:16:38;;;;;;;2.93;0.87;;;14.30;99.90;;;;;;10476821;28;20681;-68
2023/05/10 21:21:39;;;;;;;0.97;0.70;;;14.30;99.90;;;;;;10467090;28;20695;-68
2023/05/10 21:26:40;;;;;;;3.30;1.17;;;14.20;99.90;;;;;;10476017;28;20228;-68
2023/05/10 21:31:40;;;;;;;2.10;1.33;;;14.20;99.90;;;;;;10478500;28;20255;-70
2023/05/10 21:36:41;;;;;;;1.83;1.20;;;14.10;99.90;;;;;;10461856;28;20235;-68
2023/05/10 21:41:42;;;;;;;2.27;1.40;;;14.00;99.90;;;;;;10465758;28;20224;-68
2023/05/10 21:46:43;;;;;;;3.10;1.20;;;13.80;99.90;;;;;;10460861;28;20726;-67
2023/05/10 21:51:43;;;;;;;3.73;1.10;;;13.80;99.90;;;;;;10466199;28;20224;-68
2023/05/10 21:56:44;;;;;;;6.63;1.20;;;13.70;99.90;;;;;;10459216;28;20227;-68
2023/05/10 22:01:44;;;;;;;3.63;1.03;;;13.60;99.90;;;;;;10461280;28;20222;-68
2023/05/10 22:06:45;;;;;;;3.90;1.10;;;13.50;99.90;;;;;;10468722;28;20223;-67
2023/05/10 22:11:47;;;;;;;4.83;1.30;;;13.50;99.90;;;;;;10461374;28;20231;-68
2023/05/10 22:16:48;;;;;;;3.40;1.10;;;13.50;99.90;;;;;;10472032;28;20617;-67
2023/05/10 22:21:48;;;;;;;1.67;0.90;;;13.50;99.90;;;;;;10468991;28;20227;-67
2023/05/10 22:26:49;;;;;;;2.37;1.20;;;13.40;99.90;;;;;;10492278;28;20322;-67
2023/05/10 22:31:49;;;;;;;4.97;1.10;;;13.40;99.90;;;;;;10479920;28;20238;-67
2023/05/10 22:36:50;;;;;;;3.83;1.03;;;13.40;99.90;;;;;;10486351;28;20222;-67
2023/05/10 22:41:50;;;;;;;2.10;1.10;;;13.30;99.90;;;;;;10483769;28;20251;-68
2023/05/10 22:46:54;;;;;;;2.17;1.13;;;13.20;99.90;;;;;;10483230;28;20235;-67
2023/05/10 22:51:55;;;;;;;1.50;0.80;;;13.10;99.90;;;;;;10463988;28;20232;-67
2023/05/10 22:56:55;;;;;;;1.97;1.37;;;13.10;99.90;;;;;;10488313;28;20222;-66
2023/05/10 23:01:56;;;;;;;2.13;0.80;;;13.00;99.90;;;;;;10477276;28;20844;-68
2023/05/10 23:06:56;;;;;;;1.40;0.90;;;12.90;99.90;;;;;;10472316;28;20226;-68
2023/05/10 23:11:57;;;;;;;2.03;1.10;;;12.90;99.90;;;;;;10469651;28;20231;-67
2023/05/10 23:16:57;;;;;;;1.67;0.80;;;12.90;99.90;;;;;;10471239;28;20222;-66
2023/05/10 23:21:58;;;;;;;2.23;1.20;;;12.80;99.90;;;;;;10472929;28;20224;-66
2023/05/10 23:26:59;;;;;;;1.57;1.07;;;12.80;99.90;;;;;;10470913;28;20681;-67
2023/05/10 23:31:59;;;;;;;1.07;0.83;;;12.80;99.90;;;;;;10480067;28;20780;-68
2023/05/10 23:37:01;;;;;;;2.00;0.80;;;12.80;99.90;;;;;;10476047;28;20747;-65
2023/05/10 23:42:02;;;;;;;2.60;1.00;;;12.80;99.90;;;;;;10467599;28;20228;-67
2023/05/10 23:47:02;;;;;;;1.10;1.00;;;12.70;99.90;;;;;;10470035;28;20600;-67
2023/05/10 23:52:03;;;;;;;0.70;0.70;;;12.70;99.90;;;;;;10488530;28;20575;-67
2023/05/10 23:57:10;;;;;;;3.17;1.17;;;12.70;99.90;;;;;;10476156;28;20265;-67
